sensor_id;sensor_type;location;lat;lon;timestamp;temperature;humidity
20246;DHT22;10281;54.406;18.556;2023-03-01T00:01:18;2.30;99.90
20246;DHT22;10281;54.406;18.556;2023-03-01T00:03:46;2.00;99.90
20246;DHT22;10281;54.406;18.556;2023-03-01T00:06:13;2.40;99.90
20246;DHT22;10281;54.406;18.556;2023-03-01T00:08:40;2.00;99.90
20246;DHT22;10281;54.406;18.556;2023-03-01T00:11:12;2.10;99.90
20246;DHT22;10281;54.406;18.556;2023-03-01T00:13:39;2.30;99.90
20246;DHT22;10281;54.406;18.556;2023-03-01T00:16:08;1.70;99.90
20246;DHT22;10281;54.406;18.556;2023-03-01T00:18:35;2.10;99.90
20246;DHT22;10281;54.406;18.556;2023-03-01T00:21:02;2.20;99.90
20246;DHT22;10281;54.406;18.556;2023-03-01T00:23:29;2.90;99.90
20246;DHT22;10281;54.406;18.556;2023-03-01T00:25:56;2.40;99.90
20246;DHT22;10281;54.406;18.556;2023-03-01T00:28:22;2.20;99.90
20246;DHT22;10281;54.406;18.556;2023-03-01T00:30:49;2.20;99.90
20246;DHT22;10281;54.406;18.556;2023-03-01T00:33:16;2.40;99.90
20246;DHT22;10281;54.406;18.556;2023-03-01T00:35:43;2.20;99.90
20246;DHT22;10281;54.406;18.556;2023-03-01T00:38:10;2.40;99.90
20246;DHT22;10281;54.406;18.556;2023-03-01T00:40:37;2.40;99.90
20246;DHT22;10281;54.406;18.556;2023-03-01T00:43:04;2.30;99.90
20246;DHT22;10281;54.406;18.556;2023-03-01T00:45:31;2.10;99.90
20246;DHT22;10281;54.406;18.556;2023-03-01T00:50:25;2.20;99.90
20246;DHT22;10281;54.406;18.556;2023-03-01T00:52:53;2.30;99.90
20246;DHT22;10281;54.406;18.556;2023-03-01T00:55:20;2.40;99.90
20246;DHT22;10281;54.406;18.556;2023-03-01T00:57:47;2.30;99.90
20246;DHT22;10281;54.406;18.556;2023-03-01T01:00:14;2.60;99.90
20246;DHT22;10281;54.406;18.556;2023-03-01T01:02:40;2.30;99.90
20246;DHT22;10281;54.406;18.556;2023-03-01T01:05:07;2.60;99.90
20246;DHT22;10281;54.406;18.556;2023-03-01T01:07:34;2.40;99.90
20246;DHT22;10281;54.406;18.556;2023-03-01T01:10:01;2.10;99.90
20246;DHT22;10281;54.406;18.556;2023-03-01T01:12:27;2.40;99.90
20246;DHT22;10281;54.406;18.556;2023-03-01T01:14:54;2.10;99.90
20246;DHT22;10281;54.406;18.556;2023-03-01T01:17:20;2.30;99.90
20246;DHT22;10281;54.406;18.556;2023-03-01T01:19:47;2.30;99.90
20246;DHT22;10281;54.406;18.556;2023-03-01T01:22:14;2.20;99.90
20246;DHT22;10281;54.406;18.556;2023-03-01T01:24:41;2.30;99.90
20246;DHT22;10281;54.406;18.556;2023-03-01T01:27:07;2.80;99.90
20246;DHT22;10281;54.406;18.556;2023-03-01T01:29:34;2.40;99.90
20246;DHT22;10281;54.406;18.556;2023-03-01T01:32:01;2.90;99.90
20246;DHT22;10281;54.406;18.556;2023-03-01T01:34:27;1.90;99.90
20246;DHT22;10281;54.406;18.556;2023-03-01T01:39:21;2.30;99.90
20246;DHT22;10281;54.406;18.556;2023-03-01T01:41:48;2.20;99.90
20246;DHT22;10281;54.406;18.556;2023-03-01T01:44:26;2.40;99.90
20246;DHT22;10281;54.406;18.556;2023-03-01T01:46:58;2.20;99.90
20246;DHT22;10281;54.406;18.556;2023-03-01T01:49:30;2.30;99.90
20246;DHT22;10281;54.406;18.556;2023-03-01T01:54:29;2.20;99.90
20246;DHT22;10281;54.406;18.556;2023-03-01T01:56:59;2.00;99.90
20246;DHT22;10281;54.406;18.556;2023-03-01T01:59:28;2.20;99.90
20246;DHT22;10281;54.406;18.556;2023-03-01T02:04:25;2.20;99.90
20246;DHT22;10281;54.406;18.556;2023-03-01T02:06:57;2.10;99.90
20246;DHT22;10281;54.406;18.556;2023-03-01T02:09:23;2.10;99.90
20246;DHT22;10281;54.406;18.556;2023-03-01T02:19:19;1.70;99.90
20246;DHT22;10281;54.406;18.556;2023-03-01T02:21:55;2.10;99.90
20246;DHT22;10281;54.406;18.556;2023-03-01T02:26:54;2.10;99.90
20246;DHT22;10281;54.406;18.556;2023-03-01T02:31:51;2.00;99.90
20246;DHT22;10281;54.406;18.556;2023-03-01T02:34:21;2.10;99.90
20246;DHT22;10281;54.406;18.556;2023-03-01T02:36:56;2.10;99.90
20246;DHT22;10281;54.406;18.556;2023-03-01T02:39:28;2.00;99.90
20246;DHT22;10281;54.406;18.556;2023-03-01T02:41:56;2.30;99.90
20246;DHT22;10281;54.406;18.556;2023-03-01T02:44:24;2.00;99.90
20246;DHT22;10281;54.406;18.556;2023-03-01T02:46:53;2.00;99.90
20246;DHT22;10281;54.406;18.556;2023-03-01T02:49:26;1.90;99.90
20246;DHT22;10281;54.406;18.556;2023-03-01T02:54:36;2.10;99.90
20246;DHT22;10281;54.406;18.556;2023-03-01T02:57:03;2.20;99.90
20246;DHT22;10281;54.406;18.556;2023-03-01T02:59:32;2.30;99.90
20246;DHT22;10281;54.406;18.556;2023-03-01T03:02:03;2.00;99.90
20246;DHT22;10281;54.406;18.556;2023-03-01T03:04:29;2.40;99.90
20246;DHT22;10281;54.406;18.556;2023-03-01T03:09:23;1.80;99.90
20246;DHT22;10281;54.406;18.556;2023-03-01T03:11:50;2.00;99.90
20246;DHT22;10281;54.406;18.556;2023-03-01T03:14:17;1.90;99.90
20246;DHT22;10281;54.406;18.556;2023-03-01T03:16:46;1.90;99.90
20246;DHT22;10281;54.406;18.556;2023-03-01T03:19:15;1.50;99.90
20246;DHT22;10281;54.406;18.556;2023-03-01T03:24:09;2.20;99.90
20246;DHT22;10281;54.406;18.556;2023-03-01T03:26:36;1.90;99.90
20246;DHT22;10281;54.406;18.556;2023-03-01T03:29:03;2.30;99.90
20246;DHT22;10281;54.406;18.556;2023-03-01T03:31:30;2.00;99.90
20246;DHT22;10281;54.406;18.556;2023-03-01T03:33:57;2.10;99.90
20246;DHT22;10281;54.406;18.556;2023-03-01T03:36:25;2.10;99.90
20246;DHT22;10281;54.406;18.556;2023-03-01T03:38:51;2.00;99.90
20246;DHT22;10281;54.406;18.556;2023-03-01T03:41:18;2.10;99.90
20246;DHT22;10281;54.406;18.556;2023-03-01T03:43:45;1.70;99.90
20246;DHT22;10281;54.406;18.556;2023-03-01T03:46:12;1.80;99.90
20246;DHT22;10281;54.406;18.556;2023-03-01T03:48:41;2.00;99.90
20246;DHT22;10281;54.406;18.556;2023-03-01T03:51:10;1.90;99.90
20246;DHT22;10281;54.406;18.556;2023-03-01T03:53:37;2.00;99.90
20246;DHT22;10281;54.406;18.556;2023-03-01T03:56:05;1.90;99.90
20246;DHT22;10281;54.406;18.556;2023-03-01T03:58:31;2.10;99.90
20246;DHT22;10281;54.406;18.556;2023-03-01T04:00:58;2.10;99.90
20246;DHT22;10281;54.406;18.556;2023-03-01T04:03:28;1.80;99.90
20246;DHT22;10281;54.406;18.556;2023-03-01T04:05:58;1.90;99.90
20246;DHT22;10281;54.406;18.556;2023-03-01T04:08:25;2.30;99.90
20246;DHT22;10281;54.406;18.556;2023-03-01T04:10:58;2.00;99.90
20246;DHT22;10281;54.406;18.556;2023-03-01T04:13:25;2.00;99.90
20246;DHT22;10281;54.406;18.556;2023-03-01T04:15:53;2.00;99.90
20246;DHT22;10281;54.406;18.556;2023-03-01T04:18:23;1.90;99.90
20246;DHT22;10281;54.406;18.556;2023-03-01T04:20:51;1.90;99.90
20246;DHT22;10281;54.406;18.556;2023-03-01T04:23:21;2.00;99.90
20246;DHT22;10281;54.406;18.556;2023-03-01T04:25:53;2.00;99.90
20246;DHT22;10281;54.406;18.556;2023-03-01T04:30:51;2.00;99.90
20246;DHT22;10281;54.406;18.556;2023-03-01T04:33:19;2.10;99.90
20246;DHT22;10281;54.406;18.556;2023-03-01T04:35:46;1.90;99.90
20246;DHT22;10281;54.406;18.556;2023-03-01T04:38:17;1.90;99.90
20246;DHT22;10281;54.406;18.556;2023-03-01T04:40:43;1.90;99.90
20246;DHT22;10281;54.406;18.556;2023-03-01T04:43:12;2.10;99.90
20246;DHT22;10281;54.406;18.556;2023-03-01T04:45:40;1.70;99.90
20246;DHT22;10281;54.406;18.556;2023-03-01T04:50:35;2.00;99.90
20246;DHT22;10281;54.406;18.556;2023-03-01T04:55:29;2.00;99.90
20246;DHT22;10281;54.406;18.556;2023-03-01T04:57:56;1.90;99.90
20246;DHT22;10281;54.406;18.556;2023-03-01T05:00:23;1.90;99.90
20246;DHT22;10281;54.406;18.556;2023-03-01T05:02:52;2.00;99.90
20246;DHT22;10281;54.406;18.556;2023-03-01T05:05:24;2.00;99.90
20246;DHT22;10281;54.406;18.556;2023-03-01T05:07:54;1.70;99.90
20246;DHT22;10281;54.406;18.556;2023-03-01T05:10:22;2.20;99.90
20246;DHT22;10281;54.406;18.556;2023-03-01T05:12:49;1.90;99.90
20246;DHT22;10281;54.406;18.556;2023-03-01T05:15:18;2.00;99.90
20246;DHT22;10281;54.406;18.556;2023-03-01T05:17:48;2.20;99.90
20246;DHT22;10281;54.406;18.556;2023-03-01T05:20:15;2.10;99.90
20246;DHT22;10281;54.406;18.556;2023-03-01T05:22:42;2.00;99.90
20246;DHT22;10281;54.406;18.556;2023-03-01T05:25:09;2.00;99.90
20246;DHT22;10281;54.406;18.556;2023-03-01T05:27:36;1.90;99.90
20246;DHT22;10281;54.406;18.556;2023-03-01T05:32:32;2.00;99.90
20246;DHT22;10281;54.406;18.556;2023-03-01T05:34:59;1.90;99.90
20246;DHT22;10281;54.406;18.556;2023-03-01T05:37:25;2.10;99.90
20246;DHT22;10281;54.406;18.556;2023-03-01T05:42:18;1.80;99.90
20246;DHT22;10281;54.406;18.556;2023-03-01T05:44:45;1.80;99.90
20246;DHT22;10281;54.406;18.556;2023-03-01T05:47:12;1.90;99.90
20246;DHT22;10281;54.406;18.556;2023-03-01T05:49:38;1.60;99.90
20246;DHT22;10281;54.406;18.556;2023-03-01T05:52:05;2.80;99.90
20246;DHT22;10281;54.406;18.556;2023-03-01T05:54:31;1.70;99.90
20246;DHT22;10281;54.406;18.556;2023-03-01T05:56:59;1.90;99.90
20246;DHT22;10281;54.406;18.556;2023-03-01T05:59:25;2.00;99.90
20246;DHT22;10281;54.406;18.556;2023-03-01T06:01:52;1.80;99.90
20246;DHT22;10281;54.406;18.556;2023-03-01T06:04:19;1.80;99.90
20246;DHT22;10281;54.406;18.556;2023-03-01T06:06:47;1.90;99.90
20246;DHT22;10281;54.406;18.556;2023-03-01T06:09:13;1.90;99.90
20246;DHT22;10281;54.406;18.556;2023-03-01T06:11:40;1.90;99.90
20246;DHT22;10281;54.406;18.556;2023-03-01T06:14:08;2.00;99.90
20246;DHT22;10281;54.406;18.556;2023-03-01T06:16:36;1.90;99.90
20246;DHT22;10281;54.406;18.556;2023-03-01T06:19:02;1.90;99.90
20246;DHT22;10281;54.406;18.556;2023-03-01T06:21:29;1.90;99.90
20246;DHT22;10281;54.406;18.556;2023-03-01T06:23:56;2.20;99.90
20246;DHT22;10281;54.406;18.556;2023-03-01T06:26:22;2.00;99.90
20246;DHT22;10281;54.406;18.556;2023-03-01T06:28:49;2.10;99.90
20246;DHT22;10281;54.406;18.556;2023-03-01T06:31:16;2.10;99.90
20246;DHT22;10281;54.406;18.556;2023-03-01T06:33:43;2.10;99.90
20246;DHT22;10281;54.406;18.556;2023-03-01T06:36:10;2.10;99.90
20246;DHT22;10281;54.406;18.556;2023-03-01T06:38:37;2.50;99.90
20246;DHT22;10281;54.406;18.556;2023-03-01T06:41:04;2.20;99.90
20246;DHT22;10281;54.406;18.556;2023-03-01T06:43:31;2.50;99.90
20246;DHT22;10281;54.406;18.556;2023-03-01T06:45:57;2.40;99.90
20246;DHT22;10281;54.406;18.556;2023-03-01T06:48:24;2.10;99.90
20246;DHT22;10281;54.406;18.556;2023-03-01T06:50:51;2.20;99.90
20246;DHT22;10281;54.406;18.556;2023-03-01T06:53:17;3.00;99.90
20246;DHT22;10281;54.406;18.556;2023-03-01T06:55:44;2.20;99.90
20246;DHT22;10281;54.406;18.556;2023-03-01T07:00:37;2.30;99.90
20246;DHT22;10281;54.406;18.556;2023-03-01T07:05:33;2.30;99.90
20246;DHT22;10281;54.406;18.556;2023-03-01T07:08:00;2.20;99.90
20246;DHT22;10281;54.406;18.556;2023-03-01T07:10:27;2.20;99.90
20246;DHT22;10281;54.406;18.556;2023-03-01T07:12:56;1.80;99.90
20246;DHT22;10281;54.406;18.556;2023-03-01T07:15:23;2.20;99.90
20246;DHT22;10281;54.406;18.556;2023-03-01T07:17:50;2.10;99.90
20246;DHT22;10281;54.406;18.556;2023-03-01T07:20:19;2.30;99.90
20246;DHT22;10281;54.406;18.556;2023-03-01T07:22:48;2.00;99.90
20246;DHT22;10281;54.406;18.556;2023-03-01T07:25:14;3.10;99.90
20246;DHT22;10281;54.406;18.556;2023-03-01T07:27:41;2.30;99.90
20246;DHT22;10281;54.406;18.556;2023-03-01T07:30:08;2.20;99.90
20246;DHT22;10281;54.406;18.556;2023-03-01T07:32:36;2.20;99.90
20246;DHT22;10281;54.406;18.556;2023-03-01T07:35:02;1.90;99.90
20246;DHT22;10281;54.406;18.556;2023-03-01T07:37:29;2.60;99.90
20246;DHT22;10281;54.406;18.556;2023-03-01T07:39:55;2.40;99.90
20246;DHT22;10281;54.406;18.556;2023-03-01T07:42:23;2.30;99.90
20246;DHT22;10281;54.406;18.556;2023-03-01T07:44:50;2.70;99.90
20246;DHT22;10281;54.406;18.556;2023-03-01T07:47:16;2.40;99.90
20246;DHT22;10281;54.406;18.556;2023-03-01T07:49:43;2.60;99.90
20246;DHT22;10281;54.406;18.556;2023-03-01T07:52:11;2.60;99.90
20246;DHT22;10281;54.406;18.556;2023-03-01T07:54:38;2.40;99.90
20246;DHT22;10281;54.406;18.556;2023-03-01T07:57:05;2.50;99.90
20246;DHT22;10281;54.406;18.556;2023-03-01T07:59:31;2.40;99.90
20246;DHT22;10281;54.406;18.556;2023-03-01T08:01:59;2.60;99.90
20246;DHT22;10281;54.406;18.556;2023-03-01T08:04:26;2.90;99.90
20246;DHT22;10281;54.406;18.556;2023-03-01T08:06:54;2.70;99.90
20246;DHT22;10281;54.406;18.556;2023-03-01T08:09:21;2.30;99.90
20246;DHT22;10281;54.406;18.556;2023-03-01T08:11:48;2.70;99.90
20246;DHT22;10281;54.406;18.556;2023-03-01T08:14:15;2.50;99.90
20246;DHT22;10281;54.406;18.556;2023-03-01T08:16:41;2.90;99.90
20246;DHT22;10281;54.406;18.556;2023-03-01T08:19:10;2.90;99.90
20246;DHT22;10281;54.406;18.556;2023-03-01T08:24:07;2.90;99.90
20246;DHT22;10281;54.406;18.556;2023-03-01T08:26:37;3.00;99.90
20246;DHT22;10281;54.406;18.556;2023-03-01T08:31:35;3.30;99.90
20246;DHT22;10281;54.406;18.556;2023-03-01T08:34:06;3.10;99.90
20246;DHT22;10281;54.406;18.556;2023-03-01T08:36:36;3.10;99.90
20246;DHT22;10281;54.406;18.556;2023-03-01T08:39:04;3.30;99.90
20246;DHT22;10281;54.406;18.556;2023-03-01T08:41:30;3.20;99.90
20246;DHT22;10281;54.406;18.556;2023-03-01T08:43:57;3.30;99.90
20246;DHT22;10281;54.406;18.556;2023-03-01T08:46:28;3.40;99.90
20246;DHT22;10281;54.406;18.556;2023-03-01T08:48:56;3.30;99.90
20246;DHT22;10281;54.406;18.556;2023-03-01T08:51:24;3.60;99.90
20246;DHT22;10281;54.406;18.556;2023-03-01T08:53:51;3.20;99.90
20246;DHT22;10281;54.406;18.556;2023-03-01T08:56:18;3.50;99.90
20246;DHT22;10281;54.406;18.556;2023-03-01T08:58:47;3.50;99.90
20246;DHT22;10281;54.406;18.556;2023-03-01T09:01:17;3.80;99.90
20246;DHT22;10281;54.406;18.556;2023-03-01T09:03:45;3.70;99.90
20246;DHT22;10281;54.406;18.556;2023-03-01T09:06:12;3.80;99.90
20246;DHT22;10281;54.406;18.556;2023-03-01T09:08:41;3.60;99.90
20246;DHT22;10281;54.406;18.556;2023-03-01T09:11:10;3.90;99.90
20246;DHT22;10281;54.406;18.556;2023-03-01T09:13:37;3.70;99.90
20246;DHT22;10281;54.406;18.556;2023-03-01T09:18:33;3.80;99.90
20246;DHT22;10281;54.406;18.556;2023-03-01T09:21:02;3.80;99.90
20246;DHT22;10281;54.406;18.556;2023-03-01T09:23:31;4.00;99.90
20246;DHT22;10281;54.406;18.556;2023-03-01T09:25:58;3.90;99.90
20246;DHT22;10281;54.406;18.556;2023-03-01T09:28:24;3.70;99.90
20246;DHT22;10281;54.406;18.556;2023-03-01T09:30:52;4.00;99.90
20246;DHT22;10281;54.406;18.556;2023-03-01T09:33:18;4.20;99.90
20246;DHT22;10281;54.406;18.556;2023-03-01T09:35:45;4.30;99.90
20246;DHT22;10281;54.406;18.556;2023-03-01T09:38:13;4.40;99.90
20246;DHT22;10281;54.406;18.556;2023-03-01T09:40:43;4.30;99.90
20246;DHT22;10281;54.406;18.556;2023-03-01T09:43:32;4.30;99.90
20246;DHT22;10281;54.406;18.556;2023-03-01T09:46:03;4.20;99.90
20246;DHT22;10281;54.406;18.556;2023-03-01T09:48:33;4.20;99.90
20246;DHT22;10281;54.406;18.556;2023-03-01T09:51:01;4.20;99.90
20246;DHT22;10281;54.406;18.556;2023-03-01T09:53:32;4.20;99.90
20246;DHT22;10281;54.406;18.556;2023-03-01T09:56:20;4.20;99.90
20246;DHT22;10281;54.406;18.556;2023-03-01T09:58:53;4.30;99.90
20246;DHT22;10281;54.406;18.556;2023-03-01T10:01:44;4.40;99.90
20246;DHT22;10281;54.406;18.556;2023-03-01T10:07:02;4.50;99.90
20246;DHT22;10281;54.406;18.556;2023-03-01T10:09:29;4.50;99.90
20246;DHT22;10281;54.406;18.556;2023-03-01T10:11:57;4.40;99.90
20246;DHT22;10281;54.406;18.556;2023-03-01T10:14:33;4.70;99.90
20246;DHT22;10281;54.406;18.556;2023-03-01T10:17:03;4.50;99.90
20246;DHT22;10281;54.406;18.556;2023-03-01T10:19:38;4.70;99.90
20246;DHT22;10281;54.406;18.556;2023-03-01T10:22:13;4.90;99.90
20246;DHT22;10281;54.406;18.556;2023-03-01T10:24:41;4.90;99.90
20246;DHT22;10281;54.406;18.556;2023-03-01T10:27:18;4.80;99.90
20246;DHT22;10281;54.406;18.556;2023-03-01T10:29:58;5.00;99.90
20246;DHT22;10281;54.406;18.556;2023-03-01T10:32:24;4.60;99.90
20246;DHT22;10281;54.406;18.556;2023-03-01T10:34:51;4.80;99.90
20246;DHT22;10281;54.406;18.556;2023-03-01T10:37:19;4.70;99.90
20246;DHT22;10281;54.406;18.556;2023-03-01T10:39:56;4.90;99.90
20246;DHT22;10281;54.406;18.556;2023-03-01T10:42:26;4.60;99.90
20246;DHT22;10281;54.406;18.556;2023-03-01T10:44:54;4.70;99.90
20246;DHT22;10281;54.406;18.556;2023-03-01T10:47:24;4.70;99.90
20246;DHT22;10281;54.406;18.556;2023-03-01T10:49:56;4.80;99.90
20246;DHT22;10281;54.406;18.556;2023-03-01T10:52:29;5.40;99.90
20246;DHT22;10281;54.406;18.556;2023-03-01T10:54:59;4.80;99.90
20246;DHT22;10281;54.406;18.556;2023-03-01T10:57:37;4.70;99.90
20246;DHT22;10281;54.406;18.556;2023-03-01T11:00:25;4.70;99.90
20246;DHT22;10281;54.406;18.556;2023-03-01T11:03:11;4.60;99.90
20246;DHT22;10281;54.406;18.556;2023-03-01T11:05:59;4.70;99.90
20246;DHT22;10281;54.406;18.556;2023-03-01T11:08:32;5.60;99.90
20246;DHT22;10281;54.406;18.556;2023-03-01T11:11:23;4.70;99.90
20246;DHT22;10281;54.406;18.556;2023-03-01T11:13:55;4.50;99.90
20246;DHT22;10281;54.406;18.556;2023-03-01T11:16:34;4.70;99.90
20246;DHT22;10281;54.406;18.556;2023-03-01T11:19:20;4.80;99.90
20246;DHT22;10281;54.406;18.556;2023-03-01T11:21:54;4.90;99.90
20246;DHT22;10281;54.406;18.556;2023-03-01T11:26:54;4.70;99.90
20246;DHT22;10281;54.406;18.556;2023-03-01T11:29:32;4.70;99.90
20246;DHT22;10281;54.406;18.556;2023-03-01T11:32:01;4.50;99.90
20246;DHT22;10281;54.406;18.556;2023-03-01T11:34:36;4.50;99.90
20246;DHT22;10281;54.406;18.556;2023-03-01T11:37:03;4.60;99.90
20246;DHT22;10281;54.406;18.556;2023-03-01T11:39:37;4.60;99.90
20246;DHT22;10281;54.406;18.556;2023-03-01T11:42:11;4.70;99.90
20246;DHT22;10281;54.406;18.556;2023-03-01T11:44:39;4.60;99.90
20246;DHT22;10281;54.406;18.556;2023-03-01T11:47:25;4.80;99.90
20246;DHT22;10281;54.406;18.556;2023-03-01T11:50:25;4.70;99.90
20246;DHT22;10281;54.406;18.556;2023-03-01T11:53:07;4.20;99.90
20246;DHT22;10281;54.406;18.556;2023-03-01T11:55:44;4.80;99.90
20246;DHT22;10281;54.406;18.556;2023-03-01T11:58:26;4.80;99.90
20246;DHT22;10281;54.406;18.556;2023-03-01T12:01:01;4.80;99.90
20246;DHT22;10281;54.406;18.556;2023-03-01T12:03:33;4.70;99.90
20246;DHT22;10281;54.406;18.556;2023-03-01T12:09:14;4.70;99.90
20246;DHT22;10281;54.406;18.556;2023-03-01T12:14:55;4.60;99.90
20246;DHT22;10281;54.406;18.556;2023-03-01T12:17:47;4.90;99.90
20246;DHT22;10281;54.406;18.556;2023-03-01T12:20:17;4.80;99.90
20246;DHT22;10281;54.406;18.556;2023-03-01T12:22:57;4.80;99.90
20246;DHT22;10281;54.406;18.556;2023-03-01T12:28:06;4.90;99.90
20246;DHT22;10281;54.406;18.556;2023-03-01T12:33:31;5.00;99.90
20246;DHT22;10281;54.406;18.556;2023-03-01T12:38:45;4.80;99.90
20246;DHT22;10281;54.406;18.556;2023-03-01T12:41:33;5.00;99.90
20246;DHT22;10281;54.406;18.556;2023-03-01T12:47:02;5.00;99.90
20246;DHT22;10281;54.406;18.556;2023-03-01T12:49:45;4.70;99.90
20246;DHT22;10281;54.406;18.556;2023-03-01T12:52:36;4.90;99.90
20246;DHT22;10281;54.406;18.556;2023-03-01T12:55:17;5.20;99.90
20246;DHT22;10281;54.406;18.556;2023-03-01T12:57:41;5.00;99.90
20246;DHT22;10281;54.406;18.556;2023-03-01T13:00:20;5.10;99.90
20246;DHT22;10281;54.406;18.556;2023-03-01T13:02:51;5.00;99.90
20246;DHT22;10281;54.406;18.556;2023-03-01T13:05:25;5.10;99.90
20246;DHT22;10281;54.406;18.556;2023-03-01T13:10:39;4.90;99.90
20246;DHT22;10281;54.406;18.556;2023-03-01T13:13:12;5.20;99.90
20246;DHT22;10281;54.406;18.556;2023-03-01T13:15:39;5.10;99.90
20246;DHT22;10281;54.406;18.556;2023-03-01T13:18:28;5.10;99.90
20246;DHT22;10281;54.406;18.556;2023-03-01T13:20:59;4.70;99.90
20246;DHT22;10281;54.406;18.556;2023-03-01T13:23:30;5.30;99.90
20246;DHT22;10281;54.406;18.556;2023-03-01T13:26:03;5.10;99.90
20246;DHT22;10281;54.406;18.556;2023-03-01T13:28:41;5.40;99.90
20246;DHT22;10281;54.406;18.556;2023-03-01T13:32:20;5.20;99.90
20246;DHT22;10281;54.406;18.556;2023-03-01T13:33:59;5.20;99.90
20246;DHT22;10281;54.406;18.556;2023-03-01T13:36:45;5.40;99.90
20246;DHT22;10281;54.406;18.556;2023-03-01T13:39:27;5.20;99.90
20246;DHT22;10281;54.406;18.556;2023-03-01T13:41:55;5.20;99.90
20246;DHT22;10281;54.406;18.556;2023-03-01T13:44:38;4.80;99.90
20246;DHT22;10281;54.406;18.556;2023-03-01T13:47:16;5.40;99.90
20246;DHT22;10281;54.406;18.556;2023-03-01T13:49:51;5.40;99.90
20246;DHT22;10281;54.406;18.556;2023-03-01T13:54:57;5.30;99.90
20246;DHT22;10281;54.406;18.556;2023-03-01T13:57:28;5.40;99.90
20246;DHT22;10281;54.406;18.556;2023-03-01T13:59:55;5.30;99.90
20246;DHT22;10281;54.406;18.556;2023-03-01T14:02:21;5.20;99.90
20246;DHT22;10281;54.406;18.556;2023-03-01T14:04:57;5.30;99.90
20246;DHT22;10281;54.406;18.556;2023-03-01T14:07:25;5.30;99.90
20246;DHT22;10281;54.406;18.556;2023-03-01T14:10:03;6.00;99.90
20246;DHT22;10281;54.406;18.556;2023-03-01T14:12:43;5.40;99.90
20246;DHT22;10281;54.406;18.556;2023-03-01T14:15:22;5.40;99.90
20246;DHT22;10281;54.406;18.556;2023-03-01T14:18:02;5.40;99.90
20246;DHT22;10281;54.406;18.556;2023-03-01T14:20:32;4.80;99.90
20246;DHT22;10281;54.406;18.556;2023-03-01T14:30:41;5.40;99.90
20246;DHT22;10281;54.406;18.556;2023-03-01T14:35:42;5.40;99.90
20246;DHT22;10281;54.406;18.556;2023-03-01T14:38:20;5.40;99.90
20246;DHT22;10281;54.406;18.556;2023-03-01T14:40:40;5.40;99.90
20246;DHT22;10281;54.406;18.556;2023-03-01T14:43:11;5.40;99.90
20246;DHT22;10281;54.406;18.556;2023-03-01T14:45:38;5.40;99.90
20246;DHT22;10281;54.406;18.556;2023-03-01T14:48:06;5.10;99.90
20246;DHT22;10281;54.406;18.556;2023-03-01T14:50:35;5.40;99.90
20246;DHT22;10281;54.406;18.556;2023-03-01T14:53:05;5.50;99.90
20246;DHT22;10281;54.406;18.556;2023-03-01T14:55:37;5.50;99.90
20246;DHT22;10281;54.406;18.556;2023-03-01T14:58:06;5.40;99.90
20246;DHT22;10281;54.406;18.556;2023-03-01T15:00:35;5.50;99.90
20246;DHT22;10281;54.406;18.556;2023-03-01T15:03:07;5.50;99.90
20246;DHT22;10281;54.406;18.556;2023-03-01T15:05:37;5.60;99.90
20246;DHT22;10281;54.406;18.556;2023-03-01T15:08:06;5.60;99.90
20246;DHT22;10281;54.406;18.556;2023-03-01T15:10:36;5.60;99.90
20246;DHT22;10281;54.406;18.556;2023-03-01T15:13:12;5.60;99.90
20246;DHT22;10281;54.406;18.556;2023-03-01T15:15:43;5.80;99.90
20246;DHT22;10281;54.406;18.556;2023-03-01T15:20:44;5.50;99.90
20246;DHT22;10281;54.406;18.556;2023-03-01T15:23:18;5.50;99.90
20246;DHT22;10281;54.406;18.556;2023-03-01T15:25:45;5.40;99.90
20246;DHT22;10281;54.406;18.556;2023-03-01T15:28:18;5.60;99.90
20246;DHT22;10281;54.406;18.556;2023-03-01T15:30:43;5.40;99.90
20246;DHT22;10281;54.406;18.556;2023-03-01T15:33:30;5.50;99.90
20246;DHT22;10281;54.406;18.556;2023-03-01T15:36:00;5.40;99.90
20246;DHT22;10281;54.406;18.556;2023-03-01T15:38:31;5.30;99.90
20246;DHT22;10281;54.406;18.556;2023-03-01T15:41:00;5.30;99.90
20246;DHT22;10281;54.406;18.556;2023-03-01T15:46:01;5.30;99.90
20246;DHT22;10281;54.406;18.556;2023-03-01T15:48:27;5.30;99.90
20246;DHT22;10281;54.406;18.556;2023-03-01T15:50:57;5.10;99.90
20246;DHT22;10281;54.406;18.556;2023-03-01T15:53:24;5.30;99.90
20246;DHT22;10281;54.406;18.556;2023-03-01T15:55:53;5.30;99.90
20246;DHT22;10281;54.406;18.556;2023-03-01T15:58:21;5.40;99.90
20246;DHT22;10281;54.406;18.556;2023-03-01T16:00:49;5.40;99.90
20246;DHT22;10281;54.406;18.556;2023-03-01T16:05:48;5.50;99.90
20246;DHT22;10281;54.406;18.556;2023-03-01T16:08:16;5.40;99.90
20246;DHT22;10281;54.406;18.556;2023-03-01T16:10:44;5.50;99.90
20246;DHT22;10281;54.406;18.556;2023-03-01T16:13:12;5.40;99.90
20246;DHT22;10281;54.406;18.556;2023-03-01T16:15:39;5.00;99.90
20246;DHT22;10281;54.406;18.556;2023-03-01T16:18:07;5.50;99.90
20246;DHT22;10281;54.406;18.556;2023-03-01T16:20:36;5.40;99.90
20246;DHT22;10281;54.406;18.556;2023-03-01T16:23:05;5.60;99.90
20246;DHT22;10281;54.406;18.556;2023-03-01T16:25:33;5.50;99.90
20246;DHT22;10281;54.406;18.556;2023-03-01T16:30:28;5.50;99.90
20246;DHT22;10281;54.406;18.556;2023-03-01T16:32:55;5.40;99.90
20246;DHT22;10281;54.406;18.556;2023-03-01T16:35:22;5.40;99.90
20246;DHT22;10281;54.406;18.556;2023-03-01T16:37:49;5.40;99.90
20246;DHT22;10281;54.406;18.556;2023-03-01T16:40:21;5.40;99.90
20246;DHT22;10281;54.406;18.556;2023-03-01T16:42:48;5.50;99.90
20246;DHT22;10281;54.406;18.556;2023-03-01T16:45:16;5.40;99.90
20246;DHT22;10281;54.406;18.556;2023-03-01T16:47:43;5.20;99.90
20246;DHT22;10281;54.406;18.556;2023-03-01T16:50:10;5.30;99.90
20246;DHT22;10281;54.406;18.556;2023-03-01T16:52:38;5.50;99.90
20246;DHT22;10281;54.406;18.556;2023-03-01T16:55:06;5.30;99.90
20246;DHT22;10281;54.406;18.556;2023-03-01T16:57:36;5.10;99.90
20246;DHT22;10281;54.406;18.556;2023-03-01T17:00:05;5.30;99.90
20246;DHT22;10281;54.406;18.556;2023-03-01T17:02:35;5.80;99.90
20246;DHT22;10281;54.406;18.556;2023-03-01T17:05:02;5.30;99.90
20246;DHT22;10281;54.406;18.556;2023-03-01T17:07:30;5.20;99.90
20246;DHT22;10281;54.406;18.556;2023-03-01T17:10:00;5.30;99.90
20246;DHT22;10281;54.406;18.556;2023-03-01T17:12:27;4.80;99.90
20246;DHT22;10281;54.406;18.556;2023-03-01T17:14:54;5.20;99.90
20246;DHT22;10281;54.406;18.556;2023-03-01T17:17:21;5.30;99.90
20246;DHT22;10281;54.406;18.556;2023-03-01T17:19:47;5.20;99.90
20246;DHT22;10281;54.406;18.556;2023-03-01T17:22:14;4.90;99.90
20246;DHT22;10281;54.406;18.556;2023-03-01T17:27:11;5.00;99.90
20246;DHT22;10281;54.406;18.556;2023-03-01T17:29:39;5.20;99.90
20246;DHT22;10281;54.406;18.556;2023-03-01T17:32:06;5.00;99.90